Time;durP1;ratioP1;P1;durP2;ratioP2;P2;SDS_P1;SDS_P2;PMS_P1;PMS_P2;Temp;Humidity;BMP_temperature;BMP_pressure;BME280_temperature;BME280_humidity;BME280_pressure;Samples;Min_cycle;Max_cycle;Signal;HPM_P1;HPM_P2
2022/01/16 00:05:04;;;;;;;33.50;20.50;;;4.20;99.90;;;;;;5084825;28;20365;-67
2022/01/16 00:07:32;;;;;;;29.85;18.95;;;4.30;99.90;;;;;;5084326;28;20231;-64
2022/01/16 00:09:59;;;;;;;27.92;17.55;;;4.30;99.90;;;;;;5083643;28;20212;-69
2022/01/16 00:12:27;;;;;;;31.95;18.83;;;4.30;99.90;;;;;;5082168;28;20275;-67
2022/01/16 00:14:55;;;;;;;36.92;19.30;;;4.30;99.90;;;;;;5081285;28;20953;-69
2022/01/16 00:17:24;;;;;;;30.20;17.77;;;4.20;99.90;;;;;;5081966;28;20312;-68
2022/01/16 00:19:52;;;;;;;28.70;17.90;;;4.20;99.90;;;;;;5083520;28;20196;-65
2022/01/16 00:22:27;;;;;;;28.10;17.70;;;4.20;99.90;;;;;;5084412;28;20293;-67
2022/01/16 00:24:55;;;;;;;29.17;18.52;;;4.10;99.90;;;;;;5084476;28;20231;-68
2022/01/16 00:27:22;;;;;;;28.73;18.00;;;4.10;99.90;;;;;;5094883;28;20251;-66
2022/01/16 00:29:51;;;;;;;27.20;17.83;;;4.00;99.90;;;;;;5104189;28;20211;-65
2022/01/16 00:32:18;;;;;;;30.10;17.48;;;4.00;99.90;;;;;;5086284;28;20275;-66
2022/01/16 00:34:47;;;;;;;30.88;18.65;;;4.00;99.90;;;;;;5084149;28;20230;-65
2022/01/16 00:37:24;;;;;;;30.63;17.75;;;3.90;99.90;;;;;;5083870;28;20247;-67
2022/01/16 00:39:52;;;;;;;32.47;17.35;;;3.80;99.90;;;;;;5081936;28;20231;-68
2022/01/16 00:42:22;;;;;;;28.45;17.73;;;3.80;99.90;;;;;;5081955;28;20319;-68
2022/01/16 00:44:50;;;;;;;29.50;17.58;;;3.80;99.90;;;;;;5081298;28;20207;-68
2022/01/16 00:47:18;;;;;;;30.80;19.40;;;3.80;99.90;;;;;;5081081;28;20213;-70
2022/01/16 00:49:46;;;;;;;27.75;16.67;;;3.70;99.90;;;;;;5079950;28;20742;-71
2022/01/16 00:52:14;;;;;;;31.98;18.65;;;3.70;99.90;;;;;;5080603;28;20192;-70
2022/01/16 00:54:43;;;;;;;29.10;17.00;;;3.70;99.90;;;;;;5080465;28;20303;-70
2022/01/16 00:57:12;;;;;;;22.73;15.68;;;3.70;99.90;;;;;;5080154;28;20224;-69
2022/01/16 00:59:40;;;;;;;22.48;16.25;;;3.70;99.90;;;;;;5080434;28;20211;-69
2022/01/16 01:02:07;;;;;;;29.00;18.58;;;3.70;99.90;;;;;;5080397;28;20203;-71
2022/01/16 01:04:35;;;;;;;25.95;16.63;;;3.70;99.90;;;;;;5081000;28;20210;-69
2022/01/16 01:07:04;;;;;;;27.15;16.35;;;3.70;99.90;;;;;;5084814;28;20246;-69
2022/01/16 01:09:32;;;;;;;25.25;14.93;;;3.70;99.90;;;;;;5081704;28;20204;-70
2022/01/16 01:12:06;;;;;;;22.48;16.60;;;3.70;99.90;;;;;;5080607;28;20207;-71
2022/01/16 01:14:41;;;;;;;23.60;15.35;;;3.60;99.90;;;;;;5079748;28;20191;-70
2022/01/16 01:17:13;;;;;;;25.33;16.33;;;3.60;99.90;;;;;;5080128;28;20307;-69
2022/01/16 01:19:41;;;;;;;23.15;15.55;;;3.60;99.90;;;;;;5081380;28;20196;-68
2022/01/16 01:22:09;;;;;;;26.80;16.45;;;3.60;99.90;;;;;;5080611;28;20210;-69
2022/01/16 01:24:37;;;;;;;25.23;16.65;;;3.60;99.90;;;;;;5081185;28;20223;-68
2022/01/16 01:27:13;;;;;;;31.08;16.63;;;3.50;99.90;;;;;;5081030;28;20227;-67
2022/01/16 01:29:47;;;;;;;21.25;15.23;;;3.50;99.90;;;;;;5080379;28;20800;-69
2022/01/16 01:32:15;;;;;;;26.50;15.95;;;3.50;99.90;;;;;;5081197;28;20320;-68
2022/01/16 01:34:43;;;;;;;25.55;15.68;;;3.40;99.90;;;;;;5081367;28;20208;-70
2022/01/16 01:37:11;;;;;;;28.42;17.05;;;3.40;99.90;;;;;;5080993;28;20228;-68
2022/01/16 01:39:39;;;;;;;28.00;15.68;;;3.40;99.90;;;;;;5082533;28;20199;-68
2022/01/16 01:42:11;;;;;;;24.33;15.07;;;3.40;99.90;;;;;;5082541;28;20283;-68
2022/01/16 01:52:59;;;;;;;26.23;16.33;;;3.60;99.90;;;;;;5079220;28;20694;-66
2022/01/16 01:55:27;;;;;;;23.63;15.27;;;3.70;99.90;;;;;;5079109;28;20862;-69
2022/01/16 01:57:57;;;;;;;27.02;16.58;;;3.70;99.90;;;;;;5079704;28;20227;-65
2022/01/16 02:00:25;;;;;;;23.95;16.38;;;3.90;99.90;;;;;;5080092;28;20206;-68
2022/01/16 02:03:11;;;;;;;29.95;16.55;;;4.00;99.90;;;;;;5079046;28;20226;-66
2022/01/16 02:05:42;;;;;;;25.80;16.85;;;4.10;99.90;;;;;;5078829;28;20196;-67
2022/01/16 02:08:10;;;;;;;32.65;16.33;;;4.20;99.90;;;;;;5079439;28;20216;-68
2022/01/16 02:10:39;;;;;;;27.40;17.73;;;4.20;99.90;;;;;;5079615;28;20196;-66
2022/01/16 02:13:18;;;;;;;26.83;17.20;;;4.30;99.90;;;;;;5080107;28;20786;-66
2022/01/16 02:35:22;;;;;;;32.75;20.13;;;4.60;99.90;;;;;;5061665;28;20227;-68
2022/01/16 02:37:49;;;;;;;34.00;21.35;;;4.60;99.90;;;;;;5082664;28;20216;-68
2022/01/16 02:40:24;;;;;;;34.95;20.52;;;4.60;99.90;;;;;;5083468;28;20293;-68
2022/01/16 02:42:52;;;;;;;38.65;21.60;;;4.60;99.90;;;;;;5083508;28;20753;-67
2022/01/16 02:45:30;;;;;;;39.97;21.85;;;4.60;99.90;;;;;;5083683;28;20207;-68
2022/01/16 02:48:02;;;;;;;34.83;21.83;;;4.60;99.90;;;;;;5083233;28;20832;-67
2022/01/16 02:50:31;;;;;;;38.10;23.15;;;4.60;99.90;;;;;;5083155;28;20815;-67
2022/01/16 02:52:59;;;;;;;38.70;22.67;;;4.60;99.90;;;;;;5083238;28;20197;-67
2022/01/16 02:55:28;;;;;;;38.10;22.45;;;4.50;99.90;;;;;;5083664;28;20263;-68
2022/01/16 02:57:57;;;;;;;42.55;24.52;;;4.50;99.90;;;;;;5090408;28;20263;-68
2022/01/16 03:00:25;;;;;;;39.45;24.45;;;4.50;99.90;;;;;;5110264;28;20239;-67
2022/01/16 03:02:53;;;;;;;42.60;24.40;;;4.50;99.90;;;;;;5090741;28;20691;-69
2022/01/16 03:05:21;;;;;;;41.15;23.05;;;4.50;99.90;;;;;;5082585;28;20292;-70
2022/01/16 03:07:49;;;;;;;36.95;22.23;;;4.60;99.90;;;;;;5082505;28;20972;-70
2022/01/16 03:10:42;;;;;;;42.17;24.65;;;4.60;99.90;;;;;;5082378;28;20232;-70
2022/01/16 03:13:12;;;;;;;39.15;23.92;;;4.70;99.90;;;;;;5082760;28;20256;-70
2022/01/16 03:15:39;;;;;;;35.13;23.10;;;4.60;99.90;;;;;;5082762;28;20206;-71
2022/01/16 03:23:43;;;;;;;35.13;22.08;;;4.70;99.90;;;;;;5083384;28;20722;-70
2022/01/16 03:26:11;;;;;;;41.20;23.83;;;4.60;99.90;;;;;;5085319;28;20285;-70
2022/01/16 03:28:40;;;;;;;42.33;23.60;;;4.60;99.90;;;;;;5085859;28;20210;-70
2022/01/16 03:31:08;;;;;;;38.97;22.35;;;4.60;99.90;;;;;;5092394;28;20204;-70
2022/01/16 03:33:36;;;;;;;35.88;20.60;;;4.60;99.90;;;;;;5091448;28;20200;-71
2022/01/16 03:36:04;;;;;;;44.47;24.02;;;4.70;99.90;;;;;;5088141;28;20185;-70
2022/01/16 03:38:32;;;;;;;41.28;23.15;;;4.70;99.90;;;;;;5084206;28;20208;-70
2022/01/16 03:41:01;;;;;;;39.85;21.92;;;4.70;99.90;;;;;;5082870;28;20200;-70
2022/01/16 03:43:28;;;;;;;32.55;20.73;;;4.60;99.90;;;;;;5082572;28;20204;-71
2022/01/16 03:45:59;;;;;;;39.45;20.92;;;4.60;99.90;;;;;;5081833;28;20196;-70
2022/01/16 03:48:27;;;;;;;35.90;19.67;;;4.60;99.90;;;;;;5082740;28;20819;-70
2022/01/16 03:50:57;;;;;;;34.83;20.33;;;4.50;99.90;;;;;;5081983;28;20204;-71
2022/01/16 03:53:25;;;;;;;38.10;21.42;;;4.50;99.90;;;;;;5082094;28;20872;-69
2022/01/16 03:55:53;;;;;;;38.55;21.98;;;4.60;99.90;;;;;;5082343;28;20212;-68
2022/01/16 03:58:21;;;;;;;41.55;22.13;;;4.60;99.90;;;;;;5082112;28;20236;-69
2022/01/16 04:00:49;;;;;;;35.65;21.25;;;4.70;99.90;;;;;;5082520;28;20196;-69
2022/01/16 04:03:18;;;;;;;41.35;23.13;;;4.70;99.90;;;;;;5082346;28;20232;-66
2022/01/16 04:05:46;;;;;;;32.97;20.40;;;4.80;99.90;;;;;;5082119;28;20333;-68
2022/01/16 04:08:14;;;;;;;34.67;19.50;;;4.70;99.90;;;;;;5081309;28;20192;-69
2022/01/16 04:10:41;;;;;;;35.38;20.45;;;4.70;99.90;;;;;;5081524;28;20211;-69
2022/01/16 04:13:11;;;;;;;35.63;20.73;;;4.70;99.90;;;;;;5080982;28;20200;-70
2022/01/16 04:15:39;;;;;;;35.08;20.60;;;4.70;99.90;;;;;;5081331;28;20193;-70
2022/01/16 04:18:08;;;;;;;34.00;20.73;;;4.70;99.90;;;;;;5081080;28;20228;-69
2022/01/16 04:20:37;;;;;;;45.40;22.05;;;4.70;99.90;;;;;;5081183;28;20275;-70
2022/01/16 04:23:06;;;;;;;35.00;19.95;;;4.70;99.90;;;;;;5080373;28;20196;-69
2022/01/16 04:25:34;;;;;;;34.83;20.55;;;4.70;99.90;;;;;;5080225;28;20866;-69
2022/01/16 04:28:02;;;;;;;36.45;20.42;;;4.70;99.90;;;;;;5080936;28;20227;-69
2022/01/16 04:30:30;;;;;;;35.97;19.50;;;4.60;99.90;;;;;;5082489;28;20215;-70
2022/01/16 04:32:58;;;;;;;38.20;20.50;;;4.60;99.90;;;;;;5081932;28;20227;-70
2022/01/16 04:35:26;;;;;;;32.10;17.67;;;4.60;99.90;;;;;;5082369;28;20599;-69
2022/01/16 04:37:55;;;;;;;33.33;20.08;;;4.60;99.90;;;;;;5080656;28;20228;-69
2022/01/16 04:40:40;;;;;;;35.47;19.85;;;4.60;99.90;;;;;;5080916;28;20204;-69
2022/01/16 04:45:56;;;;;;;35.72;19.63;;;4.60;99.90;;;;;;5081537;28;20230;-69
2022/01/16 04:48:24;;;;;;;38.00;20.40;;;4.60;99.90;;;;;;5081527;28;20204;-70
2022/01/16 04:50:52;;;;;;;36.13;21.42;;;4.60;99.90;;;;;;5079700;28;20689;-69
2022/01/16 04:53:21;;;;;;;33.53;20.20;;;4.60;99.90;;;;;;5079580;28;20207;-70
2022/01/16 04:55:50;;;;;;;36.88;20.77;;;4.60;99.90;;;;;;5080091;28;20242;-67
2022/01/16 04:58:21;;;;;;;39.00;22.33;;;4.60;99.90;;;;;;5080477;28;20840;-68
2022/01/16 05:00:54;;;;;;;37.85;21.83;;;4.60;99.90;;;;;;5079610;28;20824;-69
2022/01/16 05:03:23;;;;;;;38.97;21.08;;;4.50;99.90;;;;;;5079943;28;20257;-67
2022/01/16 05:05:50;;;;;;;37.42;22.35;;;4.50;99.90;;;;;;5079421;28;20220;-67
2022/01/16 05:08:18;;;;;;;39.92;23.25;;;4.40;99.90;;;;;;5081089;28;20200;-68
2022/01/16 05:10:48;;;;;;;33.70;19.00;;;4.40;99.90;;;;;;5080902;28;20222;-68
2022/01/16 05:13:30;;;;;;;36.72;20.70;;;4.50;99.90;;;;;;5079604;28;20196;-68
2022/01/16 05:18:44;;;;;;;44.70;22.17;;;4.60;99.90;;;;;;5080039;28;20200;-68
2022/01/16 05:21:13;;;;;;;39.33;23.52;;;4.60;99.90;;;;;;5080978;28;20236;-68
2022/01/16 05:23:42;;;;;;;42.47;21.95;;;4.60;99.90;;;;;;5079556;28;20200;-68
2022/01/16 05:26:12;;;;;;;42.05;23.15;;;4.70;99.90;;;;;;5081437;28;20226;-68
2022/01/16 05:28:40;;;;;;;49.83;23.73;;;4.70;99.90;;;;;;5090420;28;20207;-68
2022/01/16 05:31:08;;;;;;;40.22;22.05;;;4.70;99.90;;;;;;5103598;28;20265;-69
2022/01/16 05:33:36;;;;;;;43.85;22.77;;;4.60;99.90;;;;;;5085142;28;20279;-69
2022/01/16 05:36:04;;;;;;;44.22;23.50;;;4.60;99.90;;;;;;5079751;28;20192;-70
2022/01/16 05:38:32;;;;;;;47.03;24.60;;;4.60;99.90;;;;;;5080317;28;20659;-69
2022/01/16 05:41:00;;;;;;;42.65;23.20;;;4.60;99.90;;;;;;5079207;28;20690;-68
2022/01/16 05:43:29;;;;;;;50.85;25.50;;;4.60;99.90;;;;;;5078939;28;20240;-70
2022/01/16 05:45:57;;;;;;;45.67;23.73;;;4.60;99.90;;;;;;5079418;28;20266;-70
2022/01/16 05:48:26;;;;;;;45.35;24.60;;;4.60;99.90;;;;;;5079220;28;20215;-70
2022/01/16 05:50:54;;;;;;;45.72;22.45;;;4.60;99.90;;;;;;5079706;28;20238;-70
2022/01/16 05:53:21;;;;;;;49.72;22.10;;;4.60;99.90;;;;;;5079195;28;20207;-69
2022/01/16 05:55:49;;;;;;;53.08;22.75;;;4.60;99.90;;;;;;5079050;28;20200;-68
2022/01/16 05:58:17;;;;;;;44.63;22.50;;;4.60;99.90;;;;;;5080056;28;20196;-71
2022/01/16 06:00:48;;;;;;;46.67;22.63;;;4.50;99.90;;;;;;5083875;28;20203;-70
2022/01/16 06:03:16;;;;;;;40.80;22.58;;;4.50;99.90;;;;;;5083884;28;20200;-70
2022/01/16 06:05:43;;;;;;;46.95;22.38;;;4.40;99.90;;;;;;5083407;28;20766;-70
2022/01/16 06:08:12;;;;;;;48.33;21.27;;;4.40;99.90;;;;;;5083397;28;20224;-70
2022/01/16 06:10:40;;;;;;;37.53;21.15;;;4.50;99.90;;;;;;5083649;28;20298;-71
2022/01/16 06:13:08;;;;;;;51.58;23.60;;;4.50;99.90;;;;;;5083384;28;20266;-67
2022/01/16 06:15:38;;;;;;;40.78;21.42;;;4.40;99.90;;;;;;5083620;28;20200;-67
2022/01/16 06:18:07;;;;;;;44.65;21.33;;;4.40;99.90;;;;;;5082967;28;20221;-67
2022/01/16 06:20:36;;;;;;;38.53;18.50;;;4.40;99.90;;;;;;5083348;28;20208;-70
2022/01/16 06:23:03;;;;;;;41.40;21.85;;;4.30;99.90;;;;;;5082972;28;20200;-70
2022/01/16 06:25:31;;;;;;;38.33;19.80;;;4.30;99.90;;;;;;5083442;28;20222;-69
2022/01/16 06:27:59;;;;;;;48.30;21.45;;;4.40;99.90;;;;;;5083565;28;20343;-67
2022/01/16 06:30:27;;;;;;;39.80;19.58;;;4.30;99.90;;;;;;5083217;28;20203;-70
2022/01/16 06:32:55;;;;;;;43.50;20.65;;;4.40;99.90;;;;;;5083715;28;20196;-68
2022/01/16 06:35:24;;;;;;;40.75;21.05;;;4.50;99.90;;;;;;5083540;28;20277;-67
2022/01/16 06:37:52;;;;;;;44.97;21.80;;;4.50;99.90;;;;;;5083504;28;20212;-70
2022/01/16 06:40:20;;;;;;;46.85;21.00;;;4.60;99.90;;;;;;5082988;28;20291;-67
2022/01/16 06:42:48;;;;;;;47.85;22.63;;;4.50;99.90;;;;;;5083939;28;20803;-71
2022/01/16 06:45:16;;;;;;;48.25;22.05;;;4.40;99.90;;;;;;5082841;28;20306;-68
2022/01/16 06:47:43;;;;;;;41.63;19.80;;;4.40;99.90;;;;;;5082026;28;20230;-68
2022/01/16 06:50:12;;;;;;;45.05;22.15;;;4.40;99.90;;;;;;5083180;28;20200;-67
2022/01/16 06:52:41;;;;;;;39.40;20.20;;;4.40;99.90;;;;;;5083183;28;20203;-68
2022/01/16 06:55:10;;;;;;;47.50;21.67;;;4.50;99.90;;;;;;5082775;28;20211;-69
2022/01/16 06:57:38;;;;;;;42.58;21.23;;;4.50;99.90;;;;;;5083244;28;20227;-67
2022/01/16 07:00:08;;;;;;;46.47;23.33;;;4.60;99.90;;;;;;5084821;28;20224;-71
2022/01/16 07:02:36;;;;;;;47.38;24.63;;;4.70;99.90;;;;;;5084309;28;20698;-69
2022/01/16 07:05:05;;;;;;;43.55;23.65;;;4.70;99.90;;;;;;5082738;28;20200;-69
2022/01/16 07:07:32;;;;;;;49.08;23.80;;;4.70;99.90;;;;;;5081606;28;20307;-68
2022/01/16 07:10:02;;;;;;;56.47;24.90;;;4.70;99.90;;;;;;5081068;28;20192;-71
2022/01/16 07:12:29;;;;;;;51.70;24.90;;;4.60;99.90;;;;;;5081635;28;20295;-70
2022/01/16 07:14:57;;;;;;;48.17;22.52;;;4.50;99.90;;;;;;5082053;28;20242;-70
2022/01/16 07:17:25;;;;;;;41.35;20.27;;;4.50;99.90;;;;;;5081404;28;20216;-69
2022/01/16 07:19:53;;;;;;;48.63;23.50;;;4.50;99.90;;;;;;5083789;28;20197;-68
2022/01/16 07:22:21;;;;;;;47.03;22.27;;;4.40;99.90;;;;;;5081394;28;20204;-70
2022/01/16 07:24:50;;;;;;;45.80;20.73;;;4.40;99.90;;;;;;5081990;28;20197;-72
2022/01/16 07:27:20;;;;;;;50.00;24.60;;;4.30;99.90;;;;;;5081551;28;20232;-69
2022/01/16 07:29:48;;;;;;;41.45;21.50;;;4.40;99.90;;;;;;5082081;28;20214;-71
2022/01/16 07:32:16;;;;;;;49.72;22.38;;;4.50;99.90;;;;;;5083448;28;20300;-66
2022/01/16 07:34:44;;;;;;;47.50;24.42;;;4.60;99.90;;;;;;5101592;28;20191;-67
2022/01/16 07:37:12;;;;;;;48.72;22.63;;;4.60;99.90;;;;;;5104631;28;20854;-67
2022/01/16 07:39:40;;;;;;;47.60;23.55;;;4.70;99.90;;;;;;5103399;27;20210;-67
2022/01/16 07:42:08;;;;;;;45.88;21.10;;;4.60;99.90;;;;;;5101823;28;20833;-69
2022/01/16 07:44:37;;;;;;;49.83;21.38;;;4.60;99.90;;;;;;5101319;28;20863;-67
2022/01/16 07:47:06;;;;;;;47.17;21.95;;;4.50;99.90;;;;;;5101310;28;20830;-64
2022/01/16 07:49:34;;;;;;;53.17;24.08;;;4.50;99.90;;;;;;5101356;28;20237;-65
2022/01/16 07:52:02;;;;;;;54.97;25.98;;;4.50;99.90;;;;;;5102430;28;20199;-67
2022/01/16 07:54:30;;;;;;;50.13;22.92;;;4.40;99.90;;;;;;5102063;28;20195;-67
2022/01/16 07:56:57;;;;;;;52.40;23.23;;;4.40;99.90;;;;;;5102164;28;20238;-67
2022/01/16 07:59:25;;;;;;;55.80;24.25;;;4.40;99.90;;;;;;5113720;28;20205;-67
2022/01/16 08:01:54;;;;;;;54.17;26.02;;;4.40;99.90;;;;;;5128605;28;20190;-65
2022/01/16 08:04:22;;;;;;;59.15;24.90;;;4.30;99.90;;;;;;5114427;28;20724;-65
2022/01/16 08:06:50;;;;;;;50.40;22.95;;;4.30;99.90;;;;;;5102314;28;20227;-67
2022/01/16 08:09:18;;;;;;;58.03;27.70;;;4.40;99.90;;;;;;5102569;28;20632;-66
2022/01/16 08:11:46;;;;;;;56.65;27.25;;;4.40;99.90;;;;;;5102017;28;20713;-66
2022/01/16 08:14:14;;;;;;;48.15;23.80;;;4.40;99.90;;;;;;5101990;28;20686;-65
2022/01/16 08:16:41;;;;;;;63.22;27.33;;;4.40;99.90;;;;;;5102008;28;20216;-65
2022/01/16 08:19:11;;;;;;;65.10;28.77;;;4.50;99.90;;;;;;5104016;27;20196;-67
2022/01/16 08:21:39;;;;;;;60.47;27.10;;;4.40;99.90;;;;;;5101487;28;20199;-67
2022/01/16 08:24:07;;;;;;;68.15;29.45;;;4.50;99.90;;;;;;5102247;28;20200;-66
2022/01/16 08:26:35;;;;;;;67.65;29.90;;;4.50;99.90;;;;;;5102131;28;20335;-67
2022/01/16 08:29:03;;;;;;;75.53;31.50;;;4.50;99.90;;;;;;5102680;27;20195;-68
2022/01/16 08:31:31;;;;;;;73.18;34.20;;;4.50;99.90;;;;;;5110193;28;20196;-68
2022/01/16 08:33:58;;;;;;;63.33;29.60;;;4.50;99.90;;;;;;5101251;28;20207;-67
2022/01/16 08:36:28;;;;;;;64.03;29.00;;;4.50;99.90;;;;;;5101056;28;20226;-67
2022/01/16 08:38:56;;;;;;;65.80;29.40;;;4.50;99.90;;;;;;5100906;28;20246;-68
2022/01/16 08:41:25;;;;;;;74.18;29.50;;;4.60;99.90;;;;;;5100868;28;20302;-67
2022/01/16 08:43:53;;;;;;;72.95;33.05;;;4.60;99.90;;;;;;5101364;28;20203;-68
2022/01/16 08:46:21;;;;;;;81.72;33.17;;;4.50;99.90;;;;;;5101271;28;20299;-67
2022/01/16 08:48:50;;;;;;;72.50;30.05;;;4.60;99.90;;;;;;5101291;28;20689;-66
2022/01/16 08:51:18;;;;;;;65.00;29.55;;;4.50;99.90;;;;;;5100401;28;20195;-67
2022/01/16 08:53:47;;;;;;;70.68;30.20;;;4.50;99.90;;;;;;5101214;28;20210;-67
2022/01/16 08:56:15;;;;;;;72.45;32.13;;;4.40;99.90;;;;;;5106515;28;20242;-65
2022/01/16 08:58:45;;;;;;;70.15;28.58;;;4.40;99.90;;;;;;5101164;28;20255;-66
2022/01/16 09:01:13;;;;;;;73.20;31.33;;;4.40;99.90;;;;;;5101488;28;20203;-67
2022/01/16 09:03:41;;;;;;;77.63;31.38;;;4.40;99.90;;;;;;5100500;28;20238;-67
2022/01/16 09:06:09;;;;;;;78.63;32.30;;;4.40;99.90;;;;;;5100214;28;20230;-67
2022/01/16 09:08:37;;;;;;;67.13;32.80;;;4.40;99.90;;;;;;5099453;28;20423;-66
2022/01/16 09:11:07;;;;;;;70.22;29.35;;;4.40;99.90;;;;;;5103204;28;20204;-67
2022/01/16 09:13:37;;;;;;;68.20;31.10;;;4.40;99.90;;;;;;5100497;28;20286;-66
2022/01/16 09:16:05;;;;;;;74.65;31.38;;;4.40;99.90;;;;;;5099731;28;20733;-67
2022/01/16 09:18:33;;;;;;;67.78;27.67;;;4.30;99.90;;;;;;5099760;28;20228;-66
2022/01/16 09:21:02;;;;;;;73.90;29.88;;;4.30;99.90;;;;;;5099609;28;20211;-68
2022/01/16 09:23:31;;;;;;;71.35;30.35;;;4.40;99.90;;;;;;5100816;28;20207;-66
2022/01/16 09:25:59;;;;;;;76.75;33.22;;;4.30;99.90;;;;;;5099397;28;20199;-68
2022/01/16 09:28:28;;;;;;;82.78;33.08;;;4.40;99.90;;;;;;5099510;28;20686;-66
2022/01/16 09:30:56;;;;;;;69.05;32.55;;;4.40;99.90;;;;;;5099777;28;20588;-67
2022/01/16 09:33:24;;;;;;;78.07;34.53;;;4.50;99.90;;;;;;5098213;28;20237;-65
2022/01/16 09:35:52;;;;;;;75.15;32.80;;;4.50;99.90;;;;;;5099625;28;20822;-66
2022/01/16 09:38:21;;;;;;;77.85;31.73;;;4.60;99.90;;;;;;5099904;28;20405;-66
2022/01/16 09:40:51;;;;;;;77.25;30.83;;;4.60;99.90;;;;;;5099566;28;20192;-67
2022/01/16 09:43:19;;;;;;;72.40;31.08;;;4.70;99.90;;;;;;5099900;28;20218;-66
2022/01/16 09:45:51;;;;;;;72.50;33.00;;;4.70;99.90;;;;;;5099771;28;20227;-68
2022/01/16 09:48:19;;;;;;;78.80;32.15;;;4.60;99.90;;;;;;5099572;28;20216;-67
2022/01/16 09:50:48;;;;;;;69.30;31.65;;;4.60;99.90;;;;;;5099224;28;20226;-66
2022/01/16 09:53:16;;;;;;;79.53;32.20;;;4.60;99.90;;;;;;5098875;28;20195;-65
2022/01/16 09:55:44;;;;;;;71.82;31.65;;;4.50;99.90;;;;;;5099187;28;20819;-66
2022/01/16 09:58:11;;;;;;;79.85;33.70;;;4.50;99.90;;;;;;5098940;28;20858;-65
2022/01/16 10:00:39;;;;;;;72.03;30.60;;;4.50;99.90;;;;;;5098481;28;20200;-66
2022/01/16 10:03:09;;;;;;;82.65;30.75;;;4.50;99.90;;;;;;5099242;28;20211;-66
2022/01/16 10:05:38;;;;;;;78.75;30.85;;;4.50;99.90;;;;;;5099398;28;20827;-66
2022/01/16 10:08:08;;;;;;;74.93;32.10;;;4.50;99.90;;;;;;5099071;28;20506;-66
2022/01/16 10:10:38;;;;;;;85.43;29.67;;;4.50;99.90;;;;;;5099031;28;20203;-65
2022/01/16 10:13:20;;;;;;;76.43;31.98;;;4.50;99.90;;;;;;5099302;28;20250;-64
2022/01/16 10:15:58;;;;;;;79.45;33.90;;;4.50;99.90;;;;;;5098173;28;20203;-65
2022/01/16 10:18:36;;;;;;;66.47;27.92;;;4.50;99.90;;;;;;5098845;28;20215;-64
2022/01/16 10:21:04;;;;;;;69.93;31.17;;;4.40;99.90;;;;;;5099999;28;20293;-64
2022/01/16 10:23:39;;;;;;;75.38;31.65;;;4.40;99.90;;;;;;5099594;28;20235;-63
2022/01/16 10:26:17;;;;;;;70.05;30.20;;;4.40;99.90;;;;;;5098714;28;20229;-65
2022/01/16 10:28:45;;;;;;;68.68;29.73;;;4.40;99.90;;;;;;5099106;28;20314;-65
2022/01/16 10:31:19;;;;;;;77.90;30.55;;;4.40;99.90;;;;;;5105281;28;20255;-64
2022/01/16 10:33:48;;;;;;;65.43;28.40;;;4.40;99.90;;;;;;5118761;28;20217;-66
2022/01/16 10:36:32;;;;;;;69.18;29.73;;;4.40;99.90;;;;;;5104204;28;20215;-64
2022/01/16 10:39:06;;;;;;;75.90;30.88;;;4.40;99.90;;;;;;5100080;28;20225;-65
2022/01/16 10:41:34;;;;;;;67.28;30.45;;;4.50;99.90;;;;;;5098675;28;20199;-65
2022/01/16 10:44:02;;;;;;;81.30;30.48;;;4.50;99.90;;;;;;5098717;28;20694;-64
2022/01/16 10:46:30;;;;;;;79.30;29.98;;;4.50;99.90;;;;;;5101987;28;20238;-66
2022/01/16 10:49:16;;;;;;;75.40;29.02;;;4.60;99.90;;;;;;5103198;28;20227;-67
2022/01/16 10:52:02;;;;;;;68.95;27.17;;;4.50;99.90;;;;;;5103870;28;20199;-69
2022/01/16 10:54:31;;;;;;;73.07;31.25;;;4.60;99.90;;;;;;5103008;28;20203;-68
2022/01/16 10:57:17;;;;;;;64.22;26.15;;;4.60;99.90;;;;;;5103645;28;20228;-65
2022/01/16 10:59:46;;;;;;;67.55;28.33;;;4.60;99.90;;;;;;5106090;28;20187;-68
2022/01/16 11:02:14;;;;;;;63.00;29.33;;;4.70;99.90;;;;;;5102998;27;20213;-66
2022/01/16 11:04:47;;;;;;;66.32;29.05;;;4.70;99.90;;;;;;5094530;28;20215;-64
2022/01/16 11:07:15;;;;;;;64.60;28.67;;;4.70;99.90;;;;;;5082131;28;20308;-68
2022/01/16 11:09:43;;;;;;;58.22;26.95;;;4.70;99.90;;;;;;5083863;28;20208;-65
2022/01/16 11:12:11;;;;;;;57.92;24.52;;;4.60;99.90;;;;;;5084275;28;20200;-66
2022/01/16 11:14:39;;;;;;;56.95;24.67;;;4.60;99.90;;;;;;5083824;28;20211;-65
2022/01/16 11:17:07;;;;;;;62.00;25.90;;;4.60;99.90;;;;;;5083342;28;20220;-66
2022/01/16 11:19:35;;;;;;;58.95;24.10;;;4.60;99.90;;;;;;5083167;28;20206;-64
2022/01/16 11:22:11;;;;;;;52.95;24.23;;;4.60;99.90;;;;;;5083530;28;20364;-65
2022/01/16 11:24:59;;;;;;;52.60;23.17;;;4.60;99.90;;;;;;5082314;28;20181;-63
2022/01/16 11:27:31;;;;;;;50.97;23.20;;;4.60;99.90;;;;;;5082257;28;20386;-63
2022/01/16 11:29:59;;;;;;;49.88;22.15;;;4.70;99.90;;;;;;5082750;28;20207;-67
2022/01/16 11:32:27;;;;;;;48.22;22.20;;;4.70;99.90;;;;;;5082160;28;20204;-65
2022/01/16 11:34:57;;;;;;;45.50;22.88;;;4.70;99.90;;;;;;5081694;28;20201;-63
2022/01/16 11:37:26;;;;;;;46.80;22.02;;;4.80;99.90;;;;;;5093448;28;20476;-64
2022/01/16 11:40:24;;;;;;;52.08;24.02;;;4.80;99.90;;;;;;5102684;28;20424;-63
2022/01/16 11:43:15;;;;;;;57.22;23.60;;;4.80;99.90;;;;;;5095681;28;20506;-63
2022/01/16 11:45:54;;;;;;;46.15;24.05;;;4.70;99.90;;;;;;5096194;28;20654;-64
2022/01/16 11:48:40;;;;;;;47.53;22.98;;;4.70;99.90;;;;;;5082004;28;20296;-65
2022/01/16 11:51:52;;;;;;;54.65;24.17;;;4.70;99.90;;;;;;5092691;28;20191;-65
2022/01/16 11:54:27;;;;;;;47.22;22.38;;;4.70;99.90;;;;;;5101930;28;20220;-66
2022/01/16 11:56:58;;;;;;;55.45;25.23;;;4.70;99.90;;;;;;5100842;27;20231;-64
2022/01/16 11:59:28;;;;;;;58.00;25.25;;;4.80;99.90;;;;;;5101734;28;20192;-64
2022/01/16 12:01:59;;;;;;;62.45;22.30;;;4.80;99.90;;;;;;5101660;28;20192;-63
2022/01/16 12:05:00;;;;;;;49.90;24.83;;;4.80;99.90;;;;;;5101166;28;20693;-63
2022/01/16 12:07:48;;;;;;;60.35;24.80;;;4.90;99.90;;;;;;5101210;28;20224;-66
2022/01/16 12:10:36;;;;;;;55.15;24.73;;;4.90;99.90;;;;;;5101227;28;20200;-63
2022/01/16 12:13:04;;;;;;;50.65;24.33;;;4.90;99.90;;;;;;5100779;28;20187;-65
2022/01/16 12:15:33;;;;;;;65.80;28.25;;;4.90;99.90;;;;;;5101657;28;20207;-63
2022/01/16 12:18:02;;;;;;;51.67;24.00;;;5.00;99.90;;;;;;5081007;28;20739;-64
2022/01/16 12:20:31;;;;;;;66.32;24.85;;;5.00;99.90;;;;;;5080245;28;20204;-63
2022/01/16 12:23:00;;;;;;;65.68;28.92;;;5.00;99.90;;;;;;5080239;28;20214;-65
2022/01/16 12:25:56;;;;;;;56.67;25.85;;;5.00;99.90;;;;;;5080588;28;20764;-65
2022/01/16 12:28:25;;;;;;;59.65;25.05;;;5.00;99.90;;;;;;5079514;28;20467;-66
2022/01/16 12:30:58;;;;;;;70.43;27.13;;;5.10;99.90;;;;;;5080162;28;20411;-64
2022/01/16 12:33:29;;;;;;;68.05;28.42;;;5.10;99.90;;;;;;5079924;28;20233;-64
2022/01/16 12:36:00;;;;;;;57.67;27.02;;;5.10;99.90;;;;;;5079826;28;20201;-63
2022/01/16 12:38:29;;;;;;;56.88;25.92;;;5.10;99.90;;;;;;5080701;28;20200;-66
2022/01/16 12:41:03;;;;;;;69.22;29.83;;;5.10;99.90;;;;;;5082812;28;20718;-64
2022/01/16 12:43:41;;;;;;;65.22;28.02;;;5.10;99.90;;;;;;5080059;28;20298;-63
2022/01/16 12:46:11;;;;;;;63.65;25.65;;;5.20;99.90;;;;;;5079833;28;20227;-70
2022/01/16 12:48:41;;;;;;;64.28;28.20;;;5.20;99.90;;;;;;5087406;28;20219;-72
2022/01/16 12:51:10;;;;;;;74.85;30.52;;;5.20;99.90;;;;;;5092284;28;20206;-71
2022/01/16 12:53:41;;;;;;;74.70;34.25;;;5.30;99.90;;;;;;5090668;28;20520;-71
2022/01/16 12:56:31;;;;;;;57.63;27.63;;;5.30;99.90;;;;;;5094350;28;20372;-71
2022/01/16 12:59:09;;;;;;;61.78;28.40;;;5.30;99.90;;;;;;5079533;28;20261;-70
2022/01/16 13:01:38;;;;;;;64.45;29.95;;;5.40;99.90;;;;;;5080483;28;20416;-70
2022/01/16 13:04:06;;;;;;;67.10;29.30;;;5.40;99.90;;;;;;5089415;28;20216;-70
2022/01/16 13:06:34;;;;;;;70.30;31.70;;;5.40;99.90;;;;;;5108564;28;20231;-70
2022/01/16 13:09:05;;;;;;;60.90;28.98;;;5.50;99.90;;;;;;5099658;28;20607;-71
2022/01/16 13:11:37;;;;;;;68.03;31.17;;;5.60;99.90;;;;;;5090151;28;20200;-69
2022/01/16 13:14:06;;;;;;;69.20;29.77;;;5.60;99.90;;;;;;5097547;28;20694;-69
2022/01/16 13:16:36;;;;;;;67.82;33.20;;;5.60;99.90;;;;;;5099159;28;20251;-68
2022/01/16 13:19:14;;;;;;;76.00;31.23;;;5.70;99.90;;;;;;5098910;28;20416;-69
2022/01/16 13:21:56;;;;;;;67.72;31.85;;;5.70;99.90;;;;;;5092239;28;20203;-67
2022/01/16 13:24:34;;;;;;;64.78;30.92;;;5.80;99.90;;;;;;5091618;28;20214;-69
2022/01/16 13:27:05;;;;;;;73.05;30.67;;;5.90;99.90;;;;;;5087628;28;20311;-70
2022/01/16 13:29:37;;;;;;;68.75;31.00;;;5.90;99.90;;;;;;5084404;28;20217;-68
2022/01/16 13:32:06;;;;;;;68.90;32.30;;;5.90;99.90;;;;;;5079596;28;20281;-68
2022/01/16 13:34:37;;;;;;;71.45;31.05;;;6.00;99.90;;;;;;5078055;28;20437;-70